Time;durP1;ratioP1;P1;durP2;ratioP2;P2;SDS_P1;SDS_P2;PMS_P1;PMS_P2;Temp;Humidity;BMP_temperature;BMP_pressure;BME280_temperature;BME280_humidity;BME280_pressure;Samples;Min_cycle;Max_cycle;Signal;HPM_P1;HPM_P2
2020/12/09 00:01:39;;;;;;;56.60;29.90;;;3.60;99.90;;;;;;4995297;28;20202;-76
2020/12/09 00:04:04;;;;;;;47.10;27.23;;;3.50;99.90;;;;;;4995051;28;20747;-77
2020/12/09 00:06:37;;;;;;;54.63;26.47;;;3.50;99.90;;;;;;4995147;28;20258;-77
2020/12/09 00:09:11;;;;;;;38.40;21.17;;;3.50;99.90;;;;;;4994607;28;20188;-75
2020/12/09 00:11:39;;;;;;;40.40;25.58;;;3.40;99.90;;;;;;4995395;28;20225;-76
2020/12/09 00:14:06;;;;;;;35.60;21.45;;;3.50;99.90;;;;;;4994704;28;20510;-75
2020/12/09 00:16:32;;;;;;;62.28;33.50;;;3.60;99.90;;;;;;4995156;28;20589;-76
2020/12/09 00:18:59;;;;;;;43.78;24.95;;;3.50;99.90;;;;;;4994677;28;20186;-76
2020/12/09 00:21:25;;;;;;;38.78;24.25;;;3.40;99.90;;;;;;4995151;28;20207;-75
2020/12/09 00:23:52;;;;;;;46.05;26.38;;;3.40;99.90;;;;;;4994719;28;20181;-76
2020/12/09 00:26:22;;;;;;;59.08;31.95;;;3.30;99.90;;;;;;4994868;28;20198;-76
2020/12/09 00:28:49;;;;;;;41.00;22.48;;;3.30;99.90;;;;;;4994919;28;20177;-76
2020/12/09 00:31:16;;;;;;;41.10;24.20;;;3.20;99.90;;;;;;4994696;28;20194;-75
2020/12/09 00:33:44;;;;;;;44.28;25.13;;;3.10;99.90;;;;;;4994516;28;20229;-76
2020/12/09 00:36:12;;;;;;;36.00;22.30;;;3.10;99.90;;;;;;4994980;28;20511;-76
2020/12/09 00:38:38;;;;;;;39.40;25.05;;;3.00;99.90;;;;;;4994909;28;20272;-76
2020/12/09 00:41:03;;;;;;;41.50;25.87;;;3.00;99.90;;;;;;4994536;28;20224;-76
2020/12/09 00:43:29;;;;;;;38.40;21.97;;;3.10;99.90;;;;;;4994324;28;20697;-74
2020/12/09 00:45:55;;;;;;;36.60;23.00;;;3.10;99.90;;;;;;4994696;28;20174;-75
2020/12/09 00:48:22;;;;;;;40.90;23.57;;;2.90;99.90;;;;;;4994444;28;20703;-76
2020/12/09 00:50:48;;;;;;;40.00;24.65;;;3.10;99.90;;;;;;4994506;28;20550;-76
2020/12/09 00:53:13;;;;;;;43.20;25.87;;;3.10;99.90;;;;;;4993502;28;20254;-75
2020/12/09 00:55:39;;;;;;;41.00;25.47;;;2.90;99.90;;;;;;4994356;28;20174;-76
2020/12/09 00:58:04;;;;;;;38.23;23.37;;;3.00;99.90;;;;;;4994699;28;20189;-75
2020/12/09 01:00:30;;;;;;;45.50;29.53;;;2.90;99.90;;;;;;4976944;28;20196;-75
2020/12/09 01:02:55;;;;;;;47.60;28.40;;;2.90;99.90;;;;;;4994154;28;20638;-76
2020/12/09 01:05:21;;;;;;;39.20;24.47;;;2.80;99.90;;;;;;4993060;28;20233;-76
2020/12/09 01:07:47;;;;;;;46.20;30.50;;;2.70;99.90;;;;;;4994246;28;20205;-75
2020/12/09 01:10:12;;;;;;;40.43;27.77;;;2.60;99.90;;;;;;4994182;28;20225;-75
2020/12/09 01:12:39;;;;;;;36.57;24.87;;;2.80;99.90;;;;;;4992713;28;20536;-75
2020/12/09 01:15:06;;;;;;;37.90;23.80;;;2.70;99.90;;;;;;4976694;28;20270;-74
2020/12/09 01:17:31;;;;;;;36.83;25.73;;;2.60;99.90;;;;;;4993998;28;20227;-75
2020/12/09 01:19:57;;;;;;;42.37;27.87;;;2.50;99.90;;;;;;4993977;28;20584;-75
2020/12/09 01:22:23;;;;;;;37.40;25.03;;;2.50;99.90;;;;;;4993731;28;20185;-74
2020/12/09 01:24:48;;;;;;;44.10;29.60;;;2.50;99.90;;;;;;4993973;28;20532;-74
2020/12/09 01:27:14;;;;;;;40.40;28.57;;;2.40;99.90;;;;;;4993819;28;20242;-75
2020/12/09 01:29:40;;;;;;;39.57;23.77;;;2.40;99.90;;;;;;4993839;28;20638;-75
2020/12/09 01:32:06;;;;;;;39.85;25.83;;;2.40;99.90;;;;;;4993386;28;20690;-75
2020/12/09 01:34:31;;;;;;;40.20;25.77;;;2.40;99.90;;;;;;4994041;28;20240;-73
2020/12/09 01:37:00;;;;;;;39.70;23.93;;;2.40;99.90;;;;;;4994017;28;20182;-75
2020/12/09 01:39:26;;;;;;;43.85;24.20;;;2.40;99.90;;;;;;4994210;28;20176;-75
2020/12/09 01:41:52;;;;;;;55.17;25.35;;;2.40;99.90;;;;;;4993406;28;20193;-75
2020/12/09 01:44:18;;;;;;;42.97;27.07;;;2.50;99.90;;;;;;4993788;28;20188;-73
2020/12/09 01:46:45;;;;;;;39.22;24.60;;;2.50;99.90;;;;;;4993991;28;20299;-75
2020/12/09 01:49:11;;;;;;;37.90;22.90;;;2.50;99.90;;;;;;4993821;28;20249;-73
2020/12/09 01:51:37;;;;;;;45.58;27.08;;;2.50;99.90;;;;;;4993679;28;20278;-74
2020/12/09 01:54:03;;;;;;;40.13;24.70;;;2.50;99.90;;;;;;4993597;28;20256;-74
2020/12/09 01:56:29;;;;;;;38.93;23.10;;;2.50;99.90;;;;;;4993930;28;20183;-74
2020/12/09 01:58:55;;;;;;;40.05;24.77;;;2.50;99.90;;;;;;4993756;28;20452;-74
2020/12/09 02:01:22;;;;;;;40.35;22.27;;;2.50;99.90;;;;;;4993680;28;20278;-75
2020/12/09 02:03:49;;;;;;;34.90;22.95;;;2.60;99.90;;;;;;4993324;28;20205;-76
2020/12/09 02:06:15;;;;;;;37.72;24.13;;;2.60;99.90;;;;;;4996277;28;20181;-75
2020/12/09 02:08:41;;;;;;;40.00;23.85;;;2.50;99.90;;;;;;4997531;28;20178;-76
2020/12/09 02:11:07;;;;;;;40.22;23.95;;;2.50;99.90;;;;;;4997445;28;20594;-76
2020/12/09 02:13:32;;;;;;;36.10;24.30;;;2.60;99.90;;;;;;4997147;28;20233;-76
2020/12/09 02:15:59;;;;;;;35.90;22.37;;;2.50;99.90;;;;;;4997338;28;20222;-76
2020/12/09 02:18:25;;;;;;;38.03;23.92;;;2.60;99.90;;;;;;4997563;28;20597;-75
2020/12/09 02:20:51;;;;;;;42.87;26.20;;;2.70;99.90;;;;;;4997352;28;20254;-75
2020/12/09 02:23:17;;;;;;;47.50;24.97;;;2.60;99.90;;;;;;4996941;28;20650;-74
2020/12/09 02:25:42;;;;;;;37.22;24.70;;;2.60;99.90;;;;;;4997150;28;20182;-74
2020/12/09 02:28:08;;;;;;;41.63;23.97;;;2.40;99.90;;;;;;4996958;28;20219;-75
2020/12/09 02:30:34;;;;;;;39.67;25.83;;;2.60;99.90;;;;;;4997011;28;20460;-75
2020/12/09 02:33:00;;;;;;;37.97;24.73;;;2.60;99.90;;;;;;4996581;28;20673;-76
2020/12/09 02:35:25;;;;;;;41.23;25.80;;;2.60;99.90;;;;;;4997071;28;20413;-75
2020/12/09 02:37:53;;;;;;;46.93;25.20;;;2.70;99.90;;;;;;4996955;28;20186;-75
2020/12/09 02:40:21;;;;;;;47.63;26.15;;;2.60;99.90;;;;;;4997070;28;20201;-75
2020/12/09 02:42:46;;;;;;;38.42;25.48;;;2.60;99.90;;;;;;4996804;28;20252;-75
2020/12/09 02:45:12;;;;;;;41.07;25.30;;;2.70;99.90;;;;;;4997018;28;20333;-75
2020/12/09 02:47:38;;;;;;;38.07;24.40;;;2.70;99.90;;;;;;4996783;28;20281;-73
2020/12/09 02:50:03;;;;;;;37.90;23.77;;;2.60;99.90;;;;;;4996523;28;20459;-75
2020/12/09 02:52:29;;;;;;;40.50;25.57;;;2.50;99.90;;;;;;4996473;28;20631;-75
2020/12/09 02:54:55;;;;;;;41.63;26.13;;;2.60;99.90;;;;;;4996656;28;20183;-74
2020/12/09 02:57:21;;;;;;;44.07;25.00;;;2.60;99.90;;;;;;4996538;28;20179;-75
2020/12/09 02:59:46;;;;;;;44.03;26.87;;;2.50;99.90;;;;;;4996804;28;20564;-75
2020/12/09 03:02:12;;;;;;;45.57;24.70;;;2.50;99.90;;;;;;4996170;28;20213;-75
2020/12/09 03:04:37;;;;;;;43.87;22.20;;;2.30;99.90;;;;;;4996725;28;20212;-75
2020/12/09 03:07:03;;;;;;;51.50;25.83;;;2.50;99.90;;;;;;4996584;28;20334;-75
2020/12/09 03:09:29;;;;;;;41.43;24.27;;;2.30;99.90;;;;;;4996603;28;20630;-75
2020/12/09 03:11:54;;;;;;;46.07;25.87;;;2.20;99.90;;;;;;4996129;28;20214;-75
2020/12/09 03:14:20;;;;;;;43.43;24.80;;;2.30;99.90;;;;;;4996378;28;20645;-75
2020/12/09 03:16:46;;;;;;;47.67;26.63;;;2.10;99.90;;;;;;4995426;28;20202;-75
2020/12/09 03:19:11;;;;;;;48.00;28.03;;;2.20;99.90;;;;;;4996285;28;20539;-75
2020/12/09 03:21:40;;;;;;;47.90;29.83;;;2.10;99.90;;;;;;4996054;28;20231;-74
2020/12/09 03:24:06;;;;;;;58.15;29.00;;;2.20;99.90;;;;;;4995745;28;20188;-74
2020/12/09 03:26:32;;;;;;;51.80;28.90;;;2.00;99.90;;;;;;4995840;28;20287;-74
2020/12/09 03:28:57;;;;;;;54.43;30.27;;;2.00;99.90;;;;;;4995983;28;20204;-74
2020/12/09 03:31:23;;;;;;;57.23;32.43;;;2.00;99.90;;;;;;4996012;28;20262;-75
2020/12/09 03:33:49;;;;;;;55.30;32.30;;;2.10;99.90;;;;;;4995507;28;20198;-74
2020/12/09 03:36:14;;;;;;;63.93;34.90;;;2.20;99.90;;;;;;4995788;28;20194;-75
2020/12/09 03:38:40;;;;;;;61.07;29.40;;;2.10;99.90;;;;;;4995816;28;20206;-74
2020/12/09 03:41:06;;;;;;;59.93;32.20;;;1.90;99.90;;;;;;4995786;28;20705;-75
2020/12/09 03:43:31;;;;;;;56.67;32.58;;;2.00;99.90;;;;;;4995478;28;20275;-74
2020/12/09 03:45:57;;;;;;;53.43;31.77;;;2.10;99.90;;;;;;4994558;28;20273;-75
2020/12/09 03:48:23;;;;;;;55.80;33.20;;;1.90;99.90;;;;;;4995541;28;20217;-75
2020/12/09 03:50:49;;;;;;;52.30;31.70;;;1.80;99.90;;;;;;4995744;28;20203;-75
2020/12/09 03:53:15;;;;;;;60.20;31.90;;;2.00;99.90;;;;;;4995493;28;20218;-75
2020/12/09 03:55:40;;;;;;;58.03;33.47;;;2.20;99.90;;;;;;4995665;28;20419;-74
2020/12/09 03:58:06;;;;;;;63.13;32.40;;;2.10;99.90;;;;;;4994486;28;20415;-75
2020/12/09 04:00:32;;;;;;;67.33;34.80;;;1.90;99.90;;;;;;4995342;28;20249;-75
2020/12/09 04:02:58;;;;;;;57.90;32.80;;;1.90;99.90;;;;;;4995063;28;20175;-75
2020/12/09 04:05:23;;;;;;;59.37;32.27;;;2.00;99.90;;;;;;4995364;28;20411;-74
2020/12/09 04:07:49;;;;;;;58.47;31.20;;;2.10;99.90;;;;;;4995184;28;20196;-74
2020/12/09 04:10:16;;;;;;;64.38;33.78;;;2.00;99.90;;;;;;4995210;28;20211;-74
2020/12/09 04:12:41;;;;;;;57.25;34.25;;;2.00;99.90;;;;;;4994803;28;20227;-75
2020/12/09 04:15:07;;;;;;;62.60;33.20;;;2.00;99.90;;;;;;4995185;28;20711;-75
2020/12/09 04:17:32;;;;;;;55.50;32.63;;;2.00;99.90;;;;;;4995241;28;20262;-74
2020/12/09 04:19:58;;;;;;;57.70;32.97;;;2.00;99.90;;;;;;4995027;28;20203;-74
2020/12/09 04:22:24;;;;;;;67.13;31.90;;;1.90;99.90;;;;;;4994770;28;20330;-75
2020/12/09 04:24:50;;;;;;;60.90;31.70;;;2.00;99.90;;;;;;4994917;28;20174;-74
2020/12/09 04:27:16;;;;;;;56.47;32.27;;;2.10;99.90;;;;;;4994757;28;20964;-75
2020/12/09 04:29:41;;;;;;;71.93;33.90;;;2.00;99.90;;;;;;4994782;28;20892;-75
2020/12/09 04:32:07;;;;;;;62.67;34.53;;;1.90;99.90;;;;;;4994391;28;20215;-74
2020/12/09 04:34:33;;;;;;;55.17;32.80;;;2.00;99.90;;;;;;4994822;28;20259;-75
2020/12/09 04:36:59;;;;;;;56.85;32.20;;;2.00;99.90;;;;;;4994658;28;20185;-75
2020/12/09 04:39:25;;;;;;;58.92;32.83;;;2.00;99.90;;;;;;4994780;28;20184;-75
2020/12/09 04:41:51;;;;;;;64.27;33.20;;;2.20;99.90;;;;;;4994533;28;20563;-76
2020/12/09 04:44:17;;;;;;;48.73;30.20;;;2.10;99.90;;;;;;4994661;28;20704;-74
2020/12/09 04:46:48;;;;;;;70.03;32.30;;;2.10;99.90;;;;;;4994677;28;20197;-75
2020/12/09 04:49:16;;;;;;;53.88;30.67;;;2.00;99.90;;;;;;4994546;28;20412;-74
2020/12/09 04:51:47;;;;;;;60.65;31.75;;;2.10;99.90;;;;;;4994618;28;20556;-74
2020/12/09 04:54:15;;;;;;;53.60;30.38;;;2.00;99.90;;;;;;4993053;28;20226;-75
2020/12/09 04:56:55;;;;;;;50.03;28.88;;;1.80;99.90;;;;;;4993206;28;20650;-76
2020/12/09 04:59:25;;;;;;;54.40;30.10;;;1.70;99.90;;;;;;4994392;28;20263;-75
2020/12/09 05:02:04;;;;;;;57.38;29.25;;;1.70;99.90;;;;;;4994262;28;20204;-74
2020/12/09 05:04:32;;;;;;;64.22;29.13;;;1.70;99.90;;;;;;4994602;28;20213;-75
2020/12/09 05:07:01;;;;;;;50.38;28.70;;;1.60;99.90;;;;;;4994538;28;20546;-75
2020/12/09 05:09:37;;;;;;;55.33;29.40;;;1.60;99.90;;;;;;4994519;28;20233;-75
2020/12/09 05:12:06;;;;;;;53.50;29.77;;;1.60;99.90;;;;;;4994262;28;20203;-74
2020/12/09 05:14:37;;;;;;;55.85;30.35;;;1.80;99.90;;;;;;4994517;28;20183;-75
2020/12/09 05:17:04;;;;;;;58.88;30.65;;;1.70;99.90;;;;;;4994148;28;20177;-75
2020/12/09 05:19:30;;;;;;;54.17;29.80;;;1.80;99.90;;;;;;4994021;28;20182;-75
2020/12/09 05:21:58;;;;;;;64.80;32.47;;;1.60;99.90;;;;;;4993745;28;20315;-75
2020/12/09 05:24:24;;;;;;;57.97;31.90;;;1.50;99.90;;;;;;4994011;28;20207;-75
2020/12/09 05:26:49;;;;;;;55.70;30.27;;;1.50;99.90;;;;;;4993916;28;20672;-75
2020/12/09 05:29:19;;;;;;;55.13;31.33;;;1.60;99.90;;;;;;4994032;28;20183;-75
2020/12/09 05:32:04;;;;;;;53.75;30.27;;;1.50;99.90;;;;;;4993588;28;20191;-75
2020/12/09 05:34:34;;;;;;;57.40;28.45;;;1.40;99.90;;;;;;4993528;28;20535;-75
2020/12/09 05:37:08;;;;;;;57.92;29.48;;;1.40;99.90;;;;;;4993925;28;20203;-74
2020/12/09 05:39:35;;;;;;;55.45;28.70;;;1.40;99.90;;;;;;4993188;28;20267;-75
2020/12/09 05:42:15;;;;;;;53.75;30.88;;;1.40;99.90;;;;;;4993502;28;20601;-74
2020/12/09 05:44:42;;;;;;;59.42;31.45;;;1.50;99.90;;;;;;4993738;28;20208;-75
2020/12/09 05:47:08;;;;;;;53.03;31.13;;;1.40;99.90;;;;;;4993674;28;20200;-74
2020/12/09 05:49:36;;;;;;;56.47;31.42;;;1.50;99.90;;;;;;4993578;28;20180;-75
2020/12/09 05:52:13;;;;;;;46.83;28.50;;;1.40;99.90;;;;;;4993330;28;20196;-75
2020/12/09 05:54:42;;;;;;;56.13;28.73;;;1.40;99.90;;;;;;4994063;28;20567;-75
2020/12/09 05:57:10;;;;;;;50.65;28.75;;;1.50;99.90;;;;;;4993965;28;20259;-75
2020/12/09 05:59:42;;;;;;;56.03;32.50;;;1.60;99.90;;;;;;4993843;28;20179;-75
2020/12/09 06:02:15;;;;;;;49.83;29.38;;;1.70;99.90;;;;;;4993531;28;20293;-75
2020/12/09 06:04:44;;;;;;;65.13;29.92;;;1.60;99.90;;;;;;4992647;28;20400;-75
2020/12/09 06:07:11;;;;;;;62.63;33.60;;;1.70;99.90;;;;;;4993738;28;20231;-75
2020/12/09 06:09:40;;;;;;;54.00;30.30;;;1.60;99.90;;;;;;4993504;28;20671;-75
2020/12/09 06:12:06;;;;;;;56.20;30.50;;;1.60;99.90;;;;;;4993260;28;20201;-75
2020/12/09 06:14:35;;;;;;;52.05;28.80;;;1.60;99.90;;;;;;4993560;28;20234;-75
2020/12/09 06:17:00;;;;;;;51.15;28.67;;;1.70;99.90;;;;;;4993305;28;20240;-75
2020/12/09 06:19:26;;;;;;;54.50;30.30;;;1.70;99.90;;;;;;4993735;28;20184;-75
2020/12/09 06:21:58;;;;;;;56.27;29.47;;;1.60;99.90;;;;;;4993050;28;20697;-75
2020/12/09 06:24:23;;;;;;;55.65;31.27;;;1.70;99.90;;;;;;4993572;28;20270;-74
2020/12/09 06:26:50;;;;;;;54.53;30.83;;;1.70;99.90;;;;;;4993263;28;20600;-74
2020/12/09 06:29:23;;;;;;;54.42;30.48;;;1.70;99.90;;;;;;4993345;28;20871;-75
2020/12/09 06:32:14;;;;;;;53.80;27.77;;;1.70;99.90;;;;;;4992727;28;20258;-74
2020/12/09 06:34:40;;;;;;;58.65;29.80;;;1.80;99.90;;;;;;4991299;28;20220;-75
2020/12/09 06:37:12;;;;;;;55.70;30.47;;;1.80;99.90;;;;;;4993209;28;20218;-75
2020/12/09 06:39:38;;;;;;;55.53;29.55;;;1.80;99.90;;;;;;4993366;28;20313;-75
2020/12/09 06:42:08;;;;;;;47.20;28.55;;;1.80;99.90;;;;;;4992642;28;20275;-74
2020/12/09 06:44:46;;;;;;;48.45;27.95;;;1.80;99.90;;;;;;4993290;28;20184;-75
2020/12/09 06:47:12;;;;;;;50.88;28.13;;;1.80;99.90;;;;;;4993517;28;20215;-74
2020/12/09 06:49:40;;;;;;;48.47;28.30;;;1.90;99.90;;;;;;4993247;28;20169;-76
2020/12/09 06:52:09;;;;;;;59.10;27.60;;;1.90;99.90;;;;;;4993402;28;20238;-75
2020/12/09 06:54:44;;;;;;;50.72;26.15;;;1.90;99.90;;;;;;4996802;28;20571;-75
2020/12/09 06:57:14;;;;;;;43.67;26.90;;;1.90;99.90;;;;;;4996814;28;20171;-75
2020/12/09 06:59:39;;;;;;;54.10;28.17;;;1.80;99.90;;;;;;4996812;28;20650;-75
2020/12/09 07:02:07;;;;;;;46.83;28.67;;;1.90;99.90;;;;;;4996041;28;20211;-75
2020/12/09 07:04:54;;;;;;;53.97;29.90;;;1.80;99.90;;;;;;4996648;28;20462;-75
2020/12/09 07:07:32;;;;;;;48.03;29.35;;;1.80;99.90;;;;;;4996420;28;20207;-75
2020/12/09 07:09:59;;;;;;;51.45;27.75;;;1.70;99.90;;;;;;4996327;28;20176;-75
2020/12/09 07:12:26;;;;;;;54.13;29.27;;;1.60;99.90;;;;;;4996248;28;20176;-74
2020/12/09 07:14:53;;;;;;;46.33;27.30;;;1.60;99.90;;;;;;4996464;28;20509;-74
2020/12/09 07:17:24;;;;;;;45.03;28.80;;;1.50;99.90;;;;;;4996370;28;20180;-73
2020/12/09 07:19:50;;;;;;;53.42;27.35;;;1.40;99.90;;;;;;4996485;28;20185;-75
2020/12/09 07:22:17;;;;;;;48.50;28.27;;;1.30;99.90;;;;;;4995842;28;20603;-74
2020/12/09 07:24:42;;;;;;;44.95;29.15;;;1.30;99.90;;;;;;4996199;28;20417;-75
2020/12/09 07:27:12;;;;;;;54.60;28.90;;;1.30;99.90;;;;;;4995928;28;20663;-74
2020/12/09 07:29:43;;;;;;;48.17;28.63;;;1.20;99.90;;;;;;4996037;28;20504;-75
2020/12/09 07:32:09;;;;;;;46.80;27.17;;;1.10;99.90;;;;;;4995267;28;20212;-74
2020/12/09 07:34:51;;;;;;;45.50;28.10;;;1.00;99.90;;;;;;4995836;28;20187;-75
2020/12/09 07:37:19;;;;;;;49.92;26.02;;;1.00;99.90;;;;;;4995850;28;20182;-75
2020/12/09 07:39:48;;;;;;;51.15;27.60;;;0.90;99.90;;;;;;4995906;28;20671;-75
2020/12/09 07:42:13;;;;;;;48.97;28.38;;;0.90;99.90;;;;;;4995316;28;20211;-76
2020/12/09 07:44:43;;;;;;;49.20;26.93;;;0.80;99.90;;;;;;4995576;28;20180;-75
2020/12/09 07:47:10;;;;;;;47.83;27.35;;;0.80;99.90;;;;;;4995555;28;20461;-75
2020/12/09 07:49:47;;;;;;;41.03;25.77;;;0.80;99.90;;;;;;4995739;28;20178;-74
2020/12/09 07:52:24;;;;;;;52.58;27.10;;;0.70;99.90;;;;;;4995265;28;20227;-75
2020/12/09 07:54:54;;;;;;;49.60;28.73;;;0.60;99.90;;;;;;4995550;28;20167;-76
2020/12/09 07:57:21;;;;;;;49.80;27.25;;;0.60;99.90;;;;;;4995340;28;20171;-74
2020/12/09 07:59:47;;;;;;;47.13;25.08;;;0.70;99.90;;;;;;4995475;28;20259;-76
2020/12/09 08:02:24;;;;;;;52.20;27.77;;;0.60;99.90;;;;;;4995013;28;20279;-76
2020/12/09 08:05:14;;;;;;;48.88;28.38;;;0.60;99.90;;;;;;4995406;28;20183;-75
2020/12/09 08:07:53;;;;;;;48.38;27.60;;;0.60;99.90;;;;;;4994077;28;20198;-75
2020/12/09 08:10:24;;;;;;;54.15;30.80;;;0.60;99.90;;;;;;4995517;28;20233;-76
2020/12/09 08:12:58;;;;;;;53.45;27.88;;;0.60;99.90;;;;;;4994701;28;20314;-75
2020/12/09 08:15:23;;;;;;;46.67;27.83;;;0.60;99.90;;;;;;4995112;28;20164;-76
2020/12/09 08:17:49;;;;;;;48.07;27.50;;;0.60;99.90;;;;;;4995103;28;20179;-76
2020/12/09 08:20:17;;;;;;;50.20;29.90;;;0.70;99.90;;;;;;4994945;28;20241;-75
2020/12/09 08:23:02;;;;;;;47.13;30.17;;;0.80;99.90;;;;;;4994518;28;20238;-75
2020/12/09 08:25:32;;;;;;;47.70;28.48;;;0.80;99.90;;;;;;4994941;28;20563;-76
2020/12/09 08:28:07;;;;;;;52.67;29.25;;;0.80;99.90;;;;;;4994940;28;20283;-76
2020/12/09 08:30:33;;;;;;;51.65;28.75;;;0.80;99.90;;;;;;4994660;28;21136;-75
2020/12/09 08:33:02;;;;;;;49.33;27.83;;;0.80;99.90;;;;;;4994248;28;20213;-76
2020/12/09 08:35:40;;;;;;;44.30;26.73;;;0.80;99.90;;;;;;4994891;28;20656;-76
2020/12/09 08:38:06;;;;;;;54.17;31.50;;;0.90;99.90;;;;;;4994721;28;20177;-75
2020/12/09 08:40:31;;;;;;;51.80;32.97;;;0.90;99.90;;;;;;4994604;28;20282;-76
2020/12/09 08:43:00;;;;;;;54.90;34.23;;;0.90;99.90;;;;;;4994126;28;20266;-75
2020/12/09 08:45:26;;;;;;;55.70;32.50;;;1.00;99.90;;;;;;4994865;28;20231;-75
2020/12/09 08:47:53;;;;;;;50.85;30.92;;;1.00;99.90;;;;;;4994512;28;20218;-75
2020/12/09 08:50:18;;;;;;;51.85;30.38;;;1.10;99.90;;;;;;4994550;28;20192;-75
2020/12/09 08:52:44;;;;;;;51.33;31.43;;;1.20;99.90;;;;;;4994502;28;20187;-74
2020/12/09 08:55:10;;;;;;;58.43;32.97;;;1.20;99.90;;;;;;4993356;28;20210;-75
2020/12/09 08:57:35;;;;;;;57.20;34.17;;;1.20;99.90;;;;;;4994431;28;20270;-75
2020/12/09 09:00:02;;;;;;;56.93;34.63;;;1.30;99.90;;;;;;4994484;28;20935;-76
2020/12/09 09:02:28;;;;;;;61.45;32.00;;;1.30;99.90;;;;;;4994146;28;20208;-75
2020/12/09 09:04:53;;;;;;;52.30;32.70;;;1.40;99.90;;;;;;4994264;28;20175;-75
2020/12/09 09:07:19;;;;;;;56.63;33.33;;;1.40;99.90;;;;;;4994211;28;20200;-76
2020/12/09 09:09:45;;;;;;;67.50;32.70;;;1.50;99.90;;;;;;4994271;28;20204;-75
2020/12/09 09:12:10;;;;;;;55.73;32.40;;;1.50;99.90;;;;;;4993814;28;21064;-75
2020/12/09 09:14:36;;;;;;;58.60;35.00;;;1.60;99.90;;;;;;4993768;28;20180;-74
2020/12/09 09:17:02;;;;;;;56.10;33.20;;;1.60;99.90;;;;;;4994231;28;20183;-75
2020/12/09 09:19:28;;;;;;;65.60;33.90;;;1.70;99.90;;;;;;4994292;28;20204;-75
2020/12/09 09:21:53;;;;;;;60.13;36.57;;;1.70;99.90;;;;;;4993894;28;20255;-76
2020/12/09 09:24:19;;;;;;;62.63;36.77;;;1.90;99.90;;;;;;4994168;28;20183;-75
2020/12/09 09:26:45;;;;;;;65.78;36.67;;;2.00;99.90;;;;;;4994081;28;20196;-75
2020/12/09 09:29:11;;;;;;;68.40;38.67;;;2.00;99.90;;;;;;4993960;28;20181;-75
2020/12/09 09:31:37;;;;;;;65.77;35.23;;;2.20;99.90;;;;;;4993849;28;20559;-76
2020/12/09 09:34:03;;;;;;;61.88;36.03;;;2.20;99.90;;;;;;4993503;28;20615;-76
2020/12/09 09:36:30;;;;;;;58.20;32.67;;;2.20;99.90;;;;;;4993799;28;20175;-74
2020/12/09 09:38:56;;;;;;;60.53;34.17;;;2.10;99.90;;;;;;4993824;28;20177;-75
2020/12/09 09:41:21;;;;;;;60.57;34.37;;;2.10;99.90;;;;;;4993533;28;20266;-75
2020/12/09 09:43:47;;;;;;;62.30;33.17;;;2.10;99.90;;;;;;4993647;28;20207;-75
2020/12/09 09:46:12;;;;;;;58.80;33.20;;;2.20;99.90;;;;;;4993777;28;20181;-75
2020/12/09 09:48:38;;;;;;;52.10;32.30;;;2.30;99.90;;;;;;4993709;28;20218;-76
2020/12/09 09:51:04;;;;;;;51.97;33.27;;;2.40;99.90;;;;;;4993657;28;20195;-75
2020/12/09 09:53:29;;;;;;;55.33;32.27;;;2.40;99.90;;;;;;4993330;28;20212;-75
2020/12/09 09:55:55;;;;;;;51.53;31.23;;;2.50;99.90;;;;;;4993637;28;20238;-75
2020/12/09 09:58:21;;;;;;;47.37;28.70;;;2.70;99.90;;;;;;4993727;28;20191;-75
2020/12/09 10:00:47;;;;;;;45.40;27.85;;;3.00;99.90;;;;;;4993585;28;20191;-76
2020/12/09 10:03:12;;;;;;;45.70;29.20;;;3.00;99.90;;;;;;4993478;28;20179;-75
2020/12/09 10:05:38;;;;;;;38.60;26.07;;;3.10;99.90;;;;;;4994094;28;20262;-75
2020/12/09 10:08:04;;;;;;;38.33;26.50;;;3.20;99.90;;;;;;4993723;28;20238;-75
2020/12/09 10:10:29;;;;;;;40.33;26.40;;;3.40;99.90;;;;;;4993527;28;20194;-75
2020/12/09 10:12:55;;;;;;;34.60;23.70;;;3.70;99.90;;;;;;4993373;28;20183;-75
2020/12/09 10:15:20;;;;;;;38.43;23.23;;;3.70;99.90;;;;;;4993574;28;20649;-76
2020/12/09 10:17:46;;;;;;;34.93;22.97;;;3.80;99.90;;;;;;4993540;28;20183;-75
2020/12/09 10:20:12;;;;;;;35.60;24.47;;;4.20;99.90;;;;;;4993398;28;20416;-75
2020/12/09 10:22:37;;;;;;;33.90;24.90;;;4.40;99.90;;;;;;4993238;28;20178;-74
2020/12/09 10:25:03;;;;;;;33.27;23.90;;;4.60;99.90;;;;;;4993432;28;20177;-76
2020/12/09 10:27:28;;;;;;;37.30;22.83;;;4.60;99.90;;;;;;4996335;28;20203;-75
2020/12/09 10:29:54;;;;;;;36.10;23.47;;;4.60;99.90;;;;;;4997053;28;20226;-75
2020/12/09 10:32:21;;;;;;;31.17;21.10;;;5.30;99.90;;;;;;4996626;28;20740;-76
2020/12/09 10:34:49;;;;;;;27.25;19.85;;;5.50;99.90;;;;;;4997152;28;20216;-75
2020/12/09 10:37:15;;;;;;;29.70;20.42;;;5.30;99.90;;;;;;4997031;28;20652;-75
2020/12/09 10:39:40;;;;;;;24.10;17.37;;;5.00;99.90;;;;;;4996922;28;20194;-75
2020/12/09 10:42:06;;;;;;;27.13;18.40;;;4.80;99.90;;;;;;4996555;28;20921;-75
2020/12/09 10:44:32;;;;;;;28.20;19.60;;;5.10;99.90;;;;;;4996820;28;20290;-76
2020/12/09 10:46:58;;;;;;;29.15;19.55;;;5.00;99.90;;;;;;4996918;28;20297;-75
2020/12/09 10:49:31;;;;;;;25.07;17.50;;;5.40;99.90;;;;;;4996960;28;20337;-76
2020/12/09 10:51:57;;;;;;;25.60;16.85;;;6.00;99.90;;;;;;4996385;28;20257;-75
2020/12/09 10:54:22;;;;;;;26.27;17.80;;;5.40;99.90;;;;;;4997003;28;20664;-76
2020/12/09 10:56:48;;;;;;;24.10;17.97;;;6.00;99.90;;;;;;4997125;28;20191;-76
2020/12/09 10:59:15;;;;;;;26.10;17.90;;;6.10;99.90;;;;;;4996935;28;20247;-76
2020/12/09 11:01:41;;;;;;;23.98;16.15;;;6.60;99.90;;;;;;4995587;28;20559;-76
2020/12/09 11:04:07;;;;;;;23.83;17.80;;;6.70;99.90;;;;;;4996382;28;20180;-74
2020/12/09 11:06:34;;;;;;;25.70;18.00;;;7.20;99.90;;;;;;4996345;28;20584;-76
2020/12/09 11:09:02;;;;;;;21.17;16.77;;;6.90;99.90;;;;;;4996444;28;20556;-76
2020/12/09 11:11:28;;;;;;;25.73;18.13;;;7.40;99.90;;;;;;4996494;28;20199;-75
2020/12/09 11:13:54;;;;;;;21.87;14.20;;;7.20;99.90;;;;;;4994729;28;20241;-75
2020/12/09 11:16:24;;;;;;;18.88;15.07;;;7.10;99.90;;;;;;4996295;28;20203;-75
2020/12/09 11:18:50;;;;;;;21.92;15.30;;;6.80;99.90;;;;;;4996333;28;20171;-75
2020/12/09 11:21:17;;;;;;;20.70;15.25;;;6.00;99.90;;;;;;4996322;28;20202;-75
2020/12/09 11:23:44;;;;;;;22.52;15.68;;;6.30;99.90;;;;;;4996069;28;20171;-75
2020/12/09 11:26:09;;;;;;;20.30;14.30;;;6.60;99.90;;;;;;4996083;28;20172;-74
2020/12/09 11:28:35;;;;;;;18.93;15.40;;;6.40;99.90;;;;;;4995973;28;20636;-75
2020/12/09 11:31:01;;;;;;;21.17;15.43;;;6.50;99.90;;;;;;4996063;28;20188;-74
2020/12/09 11:33:27;;;;;;;23.60;16.77;;;6.70;99.90;;;;;;4995579;28;20191;-74
2020/12/09 11:35:52;;;;;;;18.10;15.07;;;6.50;99.90;;;;;;4995999;28;20932;-75
2020/12/09 11:38:18;;;;;;;20.70;15.53;;;6.90;99.90;;;;;;4994928;28;20180;-75
2020/12/09 11:40:44;;;;;;;20.10;15.07;;;7.30;99.90;;;;;;4995813;28;20690;-76
2020/12/09 11:43:09;;;;;;;21.00;15.53;;;7.50;99.90;;;;;;4995471;28;20415;-75
2020/12/09 11:45:37;;;;;;;19.90;15.50;;;7.70;99.90;;;;;;4995867;28;20175;-75
2020/12/09 11:48:02;;;;;;;19.77;15.93;;;8.10;99.90;;;;;;4995629;28;20652;-76
2020/12/09 11:50:28;;;;;;;21.83;16.00;;;8.30;99.90;;;;;;4995368;28;20434;-75
2020/12/09 11:52:53;;;;;;;20.90;16.13;;;8.30;99.90;;;;;;4995588;28;20283;-76
2020/12/09 11:55:19;;;;;;;23.03;17.27;;;7.50;99.90;;;;;;4995529;28;20246;-76
2020/12/09 11:57:45;;;;;;;19.50;15.30;;;7.40;99.90;;;;;;4994203;28;20249;-75
2020/12/09 12:00:10;;;;;;;21.27;16.73;;;7.50;99.90;;;;;;4995258;28;20226;-74
2020/12/09 12:02:36;;;;;;;25.77;18.00;;;7.40;99.90;;;;;;4995059;28;20175;-76
2020/12/09 12:05:03;;;;;;;20.57;16.57;;;7.20;99.90;;;;;;4995400;28;20175;-76
2020/12/09 12:07:28;;;;;;;26.00;18.33;;;7.00;99.90;;;;;;4995441;28;20249;-75
2020/12/09 12:09:54;;;;;;;22.03;16.37;;;6.90;99.90;;;;;;4995486;28;20210;-75
2020/12/09 12:12:20;;;;;;;24.10;17.77;;;7.30;99.90;;;;;;4995010;28;20187;-76
2020/12/09 12:14:45;;;;;;;24.63;18.37;;;7.70;99.90;;;;;;4995235;28;20202;-76
2020/12/09 12:17:11;;;;;;;23.40;16.77;;;7.80;99.90;;;;;;4995299;28;20180;-74
2020/12/09 12:19:37;;;;;;;23.90;18.03;;;7.80;99.90;;;;;;4995384;28;20186;-76
2020/12/09 12:22:04;;;;;;;23.83;18.05;;;8.00;99.90;;;;;;4994662;28;20214;-75
2020/12/09 12:24:30;;;;;;;25.63;19.20;;;8.40;99.90;;;;;;4995304;28;20283;-75
2020/12/09 12:26:55;;;;;;;23.05;17.63;;;8.50;99.90;;;;;;4994917;28;20710;-75
2020/12/09 12:29:21;;;;;;;23.43;17.67;;;8.30;99.90;;;;;;4995164;28;20218;-75
2020/12/09 12:31:47;;;;;;;23.97;18.27;;;8.30;99.90;;;;;;4994534;28;20534;-75
2020/12/09 12:34:12;;;;;;;25.03;18.23;;;8.00;99.90;;;;;;4994539;28;20196;-77
2020/12/09 12:36:39;;;;;;;25.53;19.40;;;8.30;99.90;;;;;;4994559;28;20180;-77